sensor_id;sensor_type;location;lat;lon;timestamp;P1;durP1;ratioP1;P2;durP2;ratioP2
24485;SDS011;13449;49.374;8.584;2022-12-17T00:02:21;33.10;;;10.57;;
24485;SDS011;13449;49.374;8.584;2022-12-17T00:05:06;20.80;;;9.13;;
24485;SDS011;13449;49.374;8.584;2022-12-17T00:07:56;25.03;;;9.87;;
24485;SDS011;13449;49.374;8.584;2022-12-17T00:11:14;29.77;;;10.43;;
24485;SDS011;13449;49.374;8.584;2022-12-17T00:14:00;28.97;;;10.63;;
24485;SDS011;13449;49.374;8.584;2022-12-17T00:16:45;26.93;;;10.37;;
24485;SDS011;13449;49.374;8.584;2022-12-17T00:19:30;21.63;;;8.77;;
24485;SDS011;13449;49.374;8.584;2022-12-17T00:22:16;20.60;;;9.27;;
24485;SDS011;13449;49.374;8.584;2022-12-17T00:25:20;19.80;;;8.73;;
24485;SDS011;13449;49.374;8.584;2022-12-17T00:28:09;19.03;;;8.33;;
24485;SDS011;13449;49.374;8.584;2022-12-17T00:30:56;23.13;;;8.53;;
24485;SDS011;13449;49.374;8.584;2022-12-17T00:33:43;29.63;;;11.83;;
24485;SDS011;13449;49.374;8.584;2022-12-17T00:36:30;29.43;;;10.47;;
24485;SDS011;13449;49.374;8.584;2022-12-17T00:39:15;24.40;;;9.93;;
24485;SDS011;13449;49.374;8.584;2022-12-17T00:42:00;31.03;;;11.40;;
24485;SDS011;13449;49.374;8.584;2022-12-17T00:44:45;31.00;;;9.73;;
24485;SDS011;13449;49.374;8.584;2022-12-17T00:47:30;26.30;;;11.13;;
24485;SDS011;13449;49.374;8.584;2022-12-17T00:50:15;29.37;;;12.93;;
24485;SDS011;13449;49.374;8.584;2022-12-17T00:53:01;29.17;;;12.07;;
24485;SDS011;13449;49.374;8.584;2022-12-17T00:55:46;34.10;;;12.20;;
24485;SDS011;13449;49.374;8.584;2022-12-17T00:58:30;25.37;;;11.03;;
24485;SDS011;13449;49.374;8.584;2022-12-17T01:01:17;25.57;;;11.87;;
24485;SDS011;13449;49.374;8.584;2022-12-17T01:04:02;27.53;;;12.27;;
24485;SDS011;13449;49.374;8.584;2022-12-17T01:06:48;30.30;;;11.87;;
24485;SDS011;13449;49.374;8.584;2022-12-17T01:09:37;19.37;;;9.60;;
24485;SDS011;13449;49.374;8.584;2022-12-17T01:12:22;27.60;;;10.90;;
24485;SDS011;13449;49.374;8.584;2022-12-17T01:15:07;31.13;;;11.60;;
24485;SDS011;13449;49.374;8.584;2022-12-17T01:17:54;28.70;;;11.37;;
24485;SDS011;13449;49.374;8.584;2022-12-17T01:20:39;24.50;;;10.63;;
24485;SDS011;13449;49.374;8.584;2022-12-17T01:23:24;25.07;;;9.00;;
24485;SDS011;13449;49.374;8.584;2022-12-17T01:26:09;20.20;;;8.77;;
24485;SDS011;13449;49.374;8.584;2022-12-17T01:28:58;20.53;;;9.07;;
24485;SDS011;13449;49.374;8.584;2022-12-17T01:31:43;26.00;;;8.20;;
24485;SDS011;13449;49.374;8.584;2022-12-17T01:34:28;19.70;;;8.63;;
24485;SDS011;13449;49.374;8.584;2022-12-17T01:37:15;21.43;;;8.67;;
24485;SDS011;13449;49.374;8.584;2022-12-17T01:40:00;19.03;;;8.43;;
24485;SDS011;13449;49.374;8.584;2022-12-17T01:42:45;19.13;;;8.40;;
24485;SDS011;13449;49.374;8.584;2022-12-17T01:45:35;21.83;;;8.80;;
24485;SDS011;13449;49.374;8.584;2022-12-17T01:48:25;26.75;;;7.38;;
24485;SDS011;13449;49.374;8.584;2022-12-17T01:51:15;21.85;;;9.40;;
24485;SDS011;13449;49.374;8.584;2022-12-17T01:54:02;19.17;;;7.50;;
24485;SDS011;13449;49.374;8.584;2022-12-17T01:56:48;16.73;;;7.60;;
24485;SDS011;13449;49.374;8.584;2022-12-17T02:02:41;20.40;;;8.10;;
24485;SDS011;13449;49.374;8.584;2022-12-17T02:05:30;21.20;;;8.17;;
24485;SDS011;13449;49.374;8.584;2022-12-17T02:08:24;14.50;;;6.67;;
24485;SDS011;13449;49.374;8.584;2022-12-17T02:14:37;27.57;;;9.13;;
24485;SDS011;13449;49.374;8.584;2022-12-17T02:17:51;25.27;;;10.00;;
24485;SDS011;13449;49.374;8.584;2022-12-17T02:20:49;21.70;;;9.27;;
24485;SDS011;13449;49.374;8.584;2022-12-17T02:26:39;33.23;;;12.60;;
24485;SDS011;13449;49.374;8.584;2022-12-17T02:29:28;27.97;;;10.97;;
24485;SDS011;13449;49.374;8.584;2022-12-17T02:32:17;20.73;;;10.50;;
24485;SDS011;13449;49.374;8.584;2022-12-17T02:35:48;26.83;;;11.43;;
24485;SDS011;13449;49.374;8.584;2022-12-17T02:38:24;20.80;;;8.90;;
24485;SDS011;13449;49.374;8.584;2022-12-17T02:41:19;18.60;;;9.67;;
24485;SDS011;13449;49.374;8.584;2022-12-17T02:44:08;26.13;;;10.13;;
24485;SDS011;13449;49.374;8.584;2022-12-17T02:46:55;33.03;;;11.10;;
24485;SDS011;13449;49.374;8.584;2022-12-17T02:49:43;28.57;;;10.67;;
24485;SDS011;13449;49.374;8.584;2022-12-17T02:52:29;31.50;;;9.57;;
24485;SDS011;13449;49.374;8.584;2022-12-17T02:55:17;26.20;;;9.90;;
24485;SDS011;13449;49.374;8.584;2022-12-17T02:58:04;18.97;;;9.47;;
24485;SDS011;13449;49.374;8.584;2022-12-17T03:00:52;21.77;;;8.70;;
24485;SDS011;13449;49.374;8.584;2022-12-17T03:03:37;21.37;;;8.00;;
24485;SDS011;13449;49.374;8.584;2022-12-17T03:06:24;23.83;;;10.20;;
24485;SDS011;13449;49.374;8.584;2022-12-17T03:09:09;27.73;;;9.57;;
24485;SDS011;13449;49.374;8.584;2022-12-17T03:11:54;30.80;;;10.60;;
24485;SDS011;13449;49.374;8.584;2022-12-17T03:14:39;21.93;;;9.07;;
24485;SDS011;13449;49.374;8.584;2022-12-17T03:17:27;23.30;;;9.60;;
24485;SDS011;13449;49.374;8.584;2022-12-17T03:20:14;26.70;;;10.30;;
24485;SDS011;13449;49.374;8.584;2022-12-17T03:23:01;22.40;;;8.10;;
24485;SDS011;13449;49.374;8.584;2022-12-17T03:25:50;22.07;;;9.10;;
24485;SDS011;13449;49.374;8.584;2022-12-17T03:28:36;16.67;;;8.30;;
24485;SDS011;13449;49.374;8.584;2022-12-17T03:31:21;21.73;;;10.70;;
24485;SDS011;13449;49.374;8.584;2022-12-17T03:34:07;26.33;;;10.97;;
24485;SDS011;13449;49.374;8.584;2022-12-17T03:36:52;27.00;;;12.27;;
24485;SDS011;13449;49.374;8.584;2022-12-17T03:39:37;19.67;;;9.63;;
24485;SDS011;13449;49.374;8.584;2022-12-17T03:42:22;17.87;;;8.30;;
24485;SDS011;13449;49.374;8.584;2022-12-17T03:45:07;23.23;;;8.80;;
24485;SDS011;13449;49.374;8.584;2022-12-17T03:48:02;26.97;;;8.40;;
24485;SDS011;13449;49.374;8.584;2022-12-17T03:50:57;20.80;;;8.27;;
24485;SDS011;13449;49.374;8.584;2022-12-17T03:53:44;20.53;;;8.97;;
24485;SDS011;13449;49.374;8.584;2022-12-17T03:56:30;25.77;;;11.17;;
24485;SDS011;13449;49.374;8.584;2022-12-17T03:59:16;24.13;;;10.87;;
24485;SDS011;13449;49.374;8.584;2022-12-17T04:02:03;24.93;;;9.40;;
24485;SDS011;13449;49.374;8.584;2022-12-17T04:04:50;20.30;;;9.03;;
24485;SDS011;13449;49.374;8.584;2022-12-17T04:07:46;27.83;;;9.40;;
24485;SDS011;13449;49.374;8.584;2022-12-17T04:10:31;24.83;;;10.37;;
24485;SDS011;13449;49.374;8.584;2022-12-17T04:13:16;17.53;;;9.07;;
24485;SDS011;13449;49.374;8.584;2022-12-17T04:16:06;18.37;;;7.80;;
24485;SDS011;13449;49.374;8.584;2022-12-17T04:18:51;13.57;;;7.43;;
24485;SDS011;13449;49.374;8.584;2022-12-17T04:21:36;22.50;;;9.57;;
24485;SDS011;13449;49.374;8.584;2022-12-17T04:24:21;19.50;;;8.47;;
24485;SDS011;13449;49.374;8.584;2022-12-17T04:27:09;22.43;;;8.07;;
24485;SDS011;13449;49.374;8.584;2022-12-17T04:29:54;23.43;;;9.97;;
24485;SDS011;13449;49.374;8.584;2022-12-17T04:32:39;33.57;;;10.73;;
24485;SDS011;13449;49.374;8.584;2022-12-17T04:35:23;27.80;;;8.57;;
24485;SDS011;13449;49.374;8.584;2022-12-17T04:38:08;29.93;;;10.63;;
24485;SDS011;13449;49.374;8.584;2022-12-17T04:40:58;20.87;;;7.53;;
24485;SDS011;13449;49.374;8.584;2022-12-17T04:43:44;27.40;;;10.67;;
24485;SDS011;13449;49.374;8.584;2022-12-17T04:46:29;29.40;;;11.23;;
24485;SDS011;13449;49.374;8.584;2022-12-17T04:49:14;39.10;;;10.67;;
24485;SDS011;13449;49.374;8.584;2022-12-17T04:52:00;22.47;;;8.03;;
24485;SDS011;13449;49.374;8.584;2022-12-17T04:54:44;27.47;;;9.60;;
24485;SDS011;13449;49.374;8.584;2022-12-17T04:57:30;23.10;;;8.13;;
24485;SDS011;13449;49.374;8.584;2022-12-17T05:00:15;28.87;;;10.67;;
24485;SDS011;13449;49.374;8.584;2022-12-17T05:03:06;21.93;;;9.53;;
24485;SDS011;13449;49.374;8.584;2022-12-17T05:05:55;23.33;;;10.10;;
24485;SDS011;13449;49.374;8.584;2022-12-17T05:08:43;17.57;;;8.70;;
24485;SDS011;13449;49.374;8.584;2022-12-17T05:11:28;20.40;;;9.93;;
24485;SDS011;13449;49.374;8.584;2022-12-17T05:14:13;33.13;;;10.80;;
24485;SDS011;13449;49.374;8.584;2022-12-17T05:16:59;32.77;;;10.90;;
24485;SDS011;13449;49.374;8.584;2022-12-17T05:19:45;23.27;;;9.80;;
24485;SDS011;13449;49.374;8.584;2022-12-17T05:22:34;24.87;;;10.80;;
24485;SDS011;13449;49.374;8.584;2022-12-17T05:25:19;24.30;;;12.10;;
24485;SDS011;13449;49.374;8.584;2022-12-17T05:28:04;22.73;;;9.40;;
24485;SDS011;13449;49.374;8.584;2022-12-17T05:30:52;33.70;;;11.13;;
24485;SDS011;13449;49.374;8.584;2022-12-17T05:33:38;27.23;;;10.77;;
24485;SDS011;13449;49.374;8.584;2022-12-17T05:36:26;34.10;;;12.57;;
24485;SDS011;13449;49.374;8.584;2022-12-17T05:39:12;39.93;;;11.30;;
24485;SDS011;13449;49.374;8.584;2022-12-17T05:41:57;37.40;;;11.67;;
24485;SDS011;13449;49.374;8.584;2022-12-17T05:44:42;33.20;;;10.13;;
24485;SDS011;13449;49.374;8.584;2022-12-17T05:47:27;26.70;;;10.47;;
24485;SDS011;13449;49.374;8.584;2022-12-17T05:50:12;31.97;;;10.53;;
24485;SDS011;13449;49.374;8.584;2022-12-17T05:53:04;18.20;;;9.93;;
24485;SDS011;13449;49.374;8.584;2022-12-17T05:55:52;28.38;;;11.02;;
24485;SDS011;13449;49.374;8.584;2022-12-17T05:58:38;21.40;;;10.57;;
24485;SDS011;13449;49.374;8.584;2022-12-17T06:01:23;36.40;;;10.97;;
24485;SDS011;13449;49.374;8.584;2022-12-17T06:04:11;22.87;;;10.60;;
24485;SDS011;13449;49.374;8.584;2022-12-17T06:06:58;30.67;;;11.53;;
24485;SDS011;13449;49.374;8.584;2022-12-17T06:09:43;16.47;;;9.07;;
24485;SDS011;13449;49.374;8.584;2022-12-17T06:12:29;20.40;;;9.00;;
24485;SDS011;13449;49.374;8.584;2022-12-17T06:15:14;26.23;;;12.57;;
24485;SDS011;13449;49.374;8.584;2022-12-17T06:17:59;20.97;;;8.57;;
24485;SDS011;13449;49.374;8.584;2022-12-17T06:20:44;31.57;;;10.13;;
24485;SDS011;13449;49.374;8.584;2022-12-17T06:23:29;27.73;;;10.10;;
24485;SDS011;13449;49.374;8.584;2022-12-17T06:26:15;20.07;;;8.77;;
24485;SDS011;13449;49.374;8.584;2022-12-17T06:29:00;31.33;;;10.37;;
24485;SDS011;13449;49.374;8.584;2022-12-17T06:31:45;33.13;;;11.30;;
24485;SDS011;13449;49.374;8.584;2022-12-17T06:34:30;29.13;;;11.20;;
24485;SDS011;13449;49.374;8.584;2022-12-17T06:37:15;29.70;;;11.10;;
24485;SDS011;13449;49.374;8.584;2022-12-17T06:40:00;30.27;;;11.90;;
24485;SDS011;13449;49.374;8.584;2022-12-17T06:42:54;41.20;;;13.10;;
24485;SDS011;13449;49.374;8.584;2022-12-17T06:45:40;32.40;;;11.93;;
24485;SDS011;13449;49.374;8.584;2022-12-17T06:48:27;33.50;;;10.80;;
24485;SDS011;13449;49.374;8.584;2022-12-17T06:51:14;56.90;;;13.53;;
24485;SDS011;13449;49.374;8.584;2022-12-17T06:53:59;31.53;;;10.40;;
24485;SDS011;13449;49.374;8.584;2022-12-17T06:56:45;43.00;;;12.03;;
24485;SDS011;13449;49.374;8.584;2022-12-17T06:59:30;44.97;;;15.10;;
24485;SDS011;13449;49.374;8.584;2022-12-17T07:02:14;31.43;;;12.83;;
24485;SDS011;13449;49.374;8.584;2022-12-17T07:05:00;43.10;;;12.80;;
24485;SDS011;13449;49.374;8.584;2022-12-17T07:07:45;59.00;;;13.83;;
24485;SDS011;13449;49.374;8.584;2022-12-17T07:10:30;45.87;;;13.70;;
24485;SDS011;13449;49.374;8.584;2022-12-17T07:13:17;43.27;;;14.23;;
24485;SDS011;13449;49.374;8.584;2022-12-17T07:16:03;32.20;;;12.50;;
24485;SDS011;13449;49.374;8.584;2022-12-17T07:18:47;50.43;;;16.30;;
24485;SDS011;13449;49.374;8.584;2022-12-17T07:21:33;42.13;;;13.47;;
24485;SDS011;13449;49.374;8.584;2022-12-17T07:24:18;42.33;;;13.27;;
24485;SDS011;13449;49.374;8.584;2022-12-17T07:27:03;43.23;;;13.43;;
24485;SDS011;13449;49.374;8.584;2022-12-17T07:29:48;43.43;;;15.57;;
24485;SDS011;13449;49.374;8.584;2022-12-17T07:32:34;50.73;;;15.83;;
24485;SDS011;13449;49.374;8.584;2022-12-17T07:35:19;42.23;;;14.47;;
24485;SDS011;13449;49.374;8.584;2022-12-17T07:38:07;52.40;;;14.80;;
24485;SDS011;13449;49.374;8.584;2022-12-17T07:41:03;67.97;;;22.43;;
24485;SDS011;13449;49.374;8.584;2022-12-17T07:43:50;59.73;;;18.67;;
24485;SDS011;13449;49.374;8.584;2022-12-17T07:46:36;34.97;;;12.13;;
24485;SDS011;13449;49.374;8.584;2022-12-17T07:49:21;40.43;;;12.73;;
24485;SDS011;13449;49.374;8.584;2022-12-17T07:52:06;31.60;;;13.00;;
24485;SDS011;13449;49.374;8.584;2022-12-17T07:54:51;43.43;;;13.83;;
24485;SDS011;13449;49.374;8.584;2022-12-17T07:57:43;37.97;;;11.70;;
24485;SDS011;13449;49.374;8.584;2022-12-17T08:00:28;28.07;;;12.67;;
24485;SDS011;13449;49.374;8.584;2022-12-17T08:03:14;34.30;;;13.87;;
24485;SDS011;13449;49.374;8.584;2022-12-17T08:06:00;25.13;;;10.53;;
24485;SDS011;13449;49.374;8.584;2022-12-17T08:08:46;22.23;;;10.83;;
24485;SDS011;13449;49.374;8.584;2022-12-17T08:11:31;28.37;;;11.10;;
24485;SDS011;13449;49.374;8.584;2022-12-17T08:14:16;30.17;;;11.37;;
24485;SDS011;13449;49.374;8.584;2022-12-17T08:17:01;24.50;;;10.83;;
24485;SDS011;13449;49.374;8.584;2022-12-17T08:19:46;36.37;;;12.73;;
24485;SDS011;13449;49.374;8.584;2022-12-17T08:22:30;36.10;;;13.03;;
24485;SDS011;13449;49.374;8.584;2022-12-17T08:25:18;27.67;;;11.57;;
24485;SDS011;13449;49.374;8.584;2022-12-17T08:28:03;40.77;;;15.23;;
24485;SDS011;13449;49.374;8.584;2022-12-17T08:31:08;46.67;;;15.50;;
24485;SDS011;13449;49.374;8.584;2022-12-17T08:33:53;37.70;;;13.63;;
24485;SDS011;13449;49.374;8.584;2022-12-17T08:36:38;45.17;;;14.33;;
24485;SDS011;13449;49.374;8.584;2022-12-17T08:39:23;54.67;;;17.27;;
24485;SDS011;13449;49.374;8.584;2022-12-17T08:42:08;68.17;;;20.93;;
24485;SDS011;13449;49.374;8.584;2022-12-17T08:44:55;58.27;;;16.67;;
24485;SDS011;13449;49.374;8.584;2022-12-17T08:47:40;67.10;;;17.10;;
24485;SDS011;13449;49.374;8.584;2022-12-17T08:50:31;92.50;;;24.30;;
24485;SDS011;13449;49.374;8.584;2022-12-17T08:53:16;59.13;;;19.53;;
24485;SDS011;13449;49.374;8.584;2022-12-17T08:56:02;78.10;;;23.23;;
24485;SDS011;13449;49.374;8.584;2022-12-17T08:58:47;59.50;;;16.73;;
24485;SDS011;13449;49.374;8.584;2022-12-17T09:01:33;60.07;;;18.40;;
24485;SDS011;13449;49.374;8.584;2022-12-17T09:04:19;66.23;;;19.30;;
24485;SDS011;13449;49.374;8.584;2022-12-17T09:07:18;55.57;;;18.27;;
24485;SDS011;13449;49.374;8.584;2022-12-17T09:10:03;75.27;;;18.80;;
24485;SDS011;13449;49.374;8.584;2022-12-17T09:12:49;70.07;;;17.63;;
24485;SDS011;13449;49.374;8.584;2022-12-17T09:15:35;64.47;;;18.57;;
24485;SDS011;13449;49.374;8.584;2022-12-17T09:18:22;72.97;;;18.27;;
24485;SDS011;13449;49.374;8.584;2022-12-17T09:21:26;55.73;;;16.37;;
24485;SDS011;13449;49.374;8.584;2022-12-17T09:24:12;80.37;;;17.70;;
24485;SDS011;13449;49.374;8.584;2022-12-17T09:26:58;48.53;;;16.80;;
24485;SDS011;13449;49.374;8.584;2022-12-17T09:29:43;52.87;;;16.37;;
24485;SDS011;13449;49.374;8.584;2022-12-17T09:32:29;50.13;;;16.37;;
24485;SDS011;13449;49.374;8.584;2022-12-17T09:35:15;59.17;;;15.77;;
24485;SDS011;13449;49.374;8.584;2022-12-17T09:38:02;60.17;;;17.13;;
24485;SDS011;13449;49.374;8.584;2022-12-17T09:40:51;62.43;;;16.77;;
24485;SDS011;13449;49.374;8.584;2022-12-17T09:46:57;39.13;;;14.37;;
24485;SDS011;13449;49.374;8.584;2022-12-17T09:50:08;43.83;;;14.17;;
24485;SDS011;13449;49.374;8.584;2022-12-17T09:52:58;50.93;;;17.10;;
24485;SDS011;13449;49.374;8.584;2022-12-17T09:55:46;53.30;;;15.80;;
24485;SDS011;13449;49.374;8.584;2022-12-17T09:58:35;64.77;;;17.17;;
24485;SDS011;13449;49.374;8.584;2022-12-17T10:01:24;42.33;;;14.20;;
24485;SDS011;13449;49.374;8.584;2022-12-17T10:04:31;56.20;;;18.17;;
24485;SDS011;13449;49.374;8.584;2022-12-17T10:07:27;48.20;;;16.03;;
24485;SDS011;13449;49.374;8.584;2022-12-17T10:10:21;56.80;;;17.77;;
24485;SDS011;13449;49.374;8.584;2022-12-17T10:13:13;56.73;;;19.70;;
24485;SDS011;13449;49.374;8.584;2022-12-17T10:19:13;55.57;;;19.53;;
24485;SDS011;13449;49.374;8.584;2022-12-17T10:22:10;68.27;;;22.83;;
24485;SDS011;13449;49.374;8.584;2022-12-17T10:25:05;73.33;;;24.53;;
24485;SDS011;13449;49.374;8.584;2022-12-17T10:28:00;65.17;;;20.17;;
24485;SDS011;13449;49.374;8.584;2022-12-17T10:30:47;50.30;;;18.80;;
24485;SDS011;13449;49.374;8.584;2022-12-17T10:33:35;57.80;;;18.43;;
24485;SDS011;13449;49.374;8.584;2022-12-17T10:36:23;51.47;;;18.47;;
24485;SDS011;13449;49.374;8.584;2022-12-17T10:39:16;68.80;;;20.50;;
24485;SDS011;13449;49.374;8.584;2022-12-17T10:42:25;56.57;;;19.87;;
24485;SDS011;13449;49.374;8.584;2022-12-17T10:45:18;80.37;;;26.77;;
24485;SDS011;13449;49.374;8.584;2022-12-17T10:48:25;69.27;;;21.77;;
24485;SDS011;13449;49.374;8.584;2022-12-17T10:54:13;56.23;;;19.53;;
24485;SDS011;13449;49.374;8.584;2022-12-17T10:57:31;68.57;;;20.70;;
24485;SDS011;13449;49.374;8.584;2022-12-17T11:00:25;65.07;;;22.35;;
24485;SDS011;13449;49.374;8.584;2022-12-17T11:06:22;66.33;;;23.27;;
24485;SDS011;13449;49.374;8.584;2022-12-17T11:12:24;64.30;;;21.90;;
24485;SDS011;13449;49.374;8.584;2022-12-17T11:15:18;63.77;;;19.30;;
24485;SDS011;13449;49.374;8.584;2022-12-17T11:18:05;56.37;;;20.03;;
24485;SDS011;13449;49.374;8.584;2022-12-17T11:24:16;55.43;;;19.17;;
24485;SDS011;13449;49.374;8.584;2022-12-17T11:27:08;61.07;;;21.63;;
24485;SDS011;13449;49.374;8.584;2022-12-17T11:29:59;63.40;;;20.40;;
24485;SDS011;13449;49.374;8.584;2022-12-17T11:35:45;61.97;;;20.53;;
24485;SDS011;13449;49.374;8.584;2022-12-17T11:38:37;66.27;;;22.57;;
24485;SDS011;13449;49.374;8.584;2022-12-17T11:50:31;58.40;;;19.50;;
24485;SDS011;13449;49.374;8.584;2022-12-17T11:53:43;58.20;;;20.17;;
24485;SDS011;13449;49.374;8.584;2022-12-17T11:56:50;61.83;;;19.70;;
24485;SDS011;13449;49.374;8.584;2022-12-17T11:59:43;61.30;;;20.27;;
24485;SDS011;13449;49.374;8.584;2022-12-17T12:03:23;70.30;;;19.77;;
24485;SDS011;13449;49.374;8.584;2022-12-17T12:05:59;63.57;;;22.57;;
24485;SDS011;13449;49.374;8.584;2022-12-17T12:12:15;54.90;;;19.52;;
24485;SDS011;13449;49.374;8.584;2022-12-17T12:15:22;56.65;;;19.05;;
24485;SDS011;13449;49.374;8.584;2022-12-17T12:18:50;50.28;;;16.92;;
24485;SDS011;13449;49.374;8.584;2022-12-17T12:24:42;59.67;;;18.47;;
24485;SDS011;13449;49.374;8.584;2022-12-17T12:27:50;57.33;;;17.23;;
24485;SDS011;13449;49.374;8.584;2022-12-17T12:30:41;49.60;;;18.67;;
24485;SDS011;13449;49.374;8.584;2022-12-17T12:33:43;52.13;;;18.17;;
24485;SDS011;13449;49.374;8.584;2022-12-17T12:36:34;47.07;;;17.83;;
24485;SDS011;13449;49.374;8.584;2022-12-17T12:39:24;52.30;;;17.47;;
24485;SDS011;13449;49.374;8.584;2022-12-17T12:42:30;55.90;;;18.08;;
24485;SDS011;13449;49.374;8.584;2022-12-17T12:49:04;57.27;;;17.63;;
24485;SDS011;13449;49.374;8.584;2022-12-17T12:51:51;54.33;;;18.30;;
24485;SDS011;13449;49.374;8.584;2022-12-17T12:54:49;62.47;;;19.20;;
24485;SDS011;13449;49.374;8.584;2022-12-17T13:11:44;63.20;;;19.53;;
24485;SDS011;13449;49.374;8.584;2022-12-17T13:14:21;62.70;;;19.33;;
24485;SDS011;13449;49.374;8.584;2022-12-17T13:16:50;69.73;;;20.10;;
24485;SDS011;13449;49.374;8.584;2022-12-17T13:22:08;64.33;;;19.20;;
24485;SDS011;13449;49.374;8.584;2022-12-17T13:24:49;62.27;;;17.63;;
24485;SDS011;13449;49.374;8.584;2022-12-17T13:41:27;76.33;;;21.67;;
24485;SDS011;13449;49.374;8.584;2022-12-17T13:43:57;76.70;;;23.27;;
24485;SDS011;13449;49.374;8.584;2022-12-17T13:46:49;74.97;;;24.60;;
24485;SDS011;13449;49.374;8.584;2022-12-17T13:49:21;83.30;;;22.67;;
24485;SDS011;13449;49.374;8.584;2022-12-17T13:52:04;80.10;;;21.80;;
24485;SDS011;13449;49.374;8.584;2022-12-17T13:54:43;76.32;;;22.27;;
24485;SDS011;13449;49.374;8.584;2022-12-17T13:59:40;67.70;;;20.57;;
24485;SDS011;13449;49.374;8.584;2022-12-17T14:02:27;108.03;;;29.10;;
24485;SDS011;13449;49.374;8.584;2022-12-17T14:04:59;79.93;;;24.33;;
24485;SDS011;13449;49.374;8.584;2022-12-17T14:07:33;88.23;;;27.90;;
24485;SDS011;13449;49.374;8.584;2022-12-17T14:10:04;85.47;;;26.83;;
24485;SDS011;13449;49.374;8.584;2022-12-17T14:12:39;87.27;;;28.83;;
24485;SDS011;13449;49.374;8.584;2022-12-17T14:15:14;97.57;;;27.60;;
24485;SDS011;13449;49.374;8.584;2022-12-17T14:17:47;101.23;;;27.90;;
24485;SDS011;13449;49.374;8.584;2022-12-17T14:20:16;82.80;;;23.73;;
24485;SDS011;13449;49.374;8.584;2022-12-17T14:22:45;87.70;;;25.47;;
24485;SDS011;13449;49.374;8.584;2022-12-17T14:25:25;86.57;;;23.25;;
24485;SDS011;13449;49.374;8.584;2022-12-17T14:27:57;82.93;;;23.03;;
24485;SDS011;13449;49.374;8.584;2022-12-17T14:30:37;85.17;;;26.30;;
24485;SDS011;13449;49.374;8.584;2022-12-17T14:33:29;95.23;;;29.03;;
24485;SDS011;13449;49.374;8.584;2022-12-17T14:36:05;113.43;;;29.57;;
24485;SDS011;13449;49.374;8.584;2022-12-17T14:38:34;100.47;;;29.57;;
24485;SDS011;13449;49.374;8.584;2022-12-17T14:41:11;109.53;;;28.33;;
24485;SDS011;13449;49.374;8.584;2022-12-17T14:43:58;94.70;;;24.03;;
24485;SDS011;13449;49.374;8.584;2022-12-17T14:46:27;95.43;;;24.57;;
24485;SDS011;13449;49.374;8.584;2022-12-17T14:48:56;78.33;;;24.47;;
24485;SDS011;13449;49.374;8.584;2022-12-17T14:56:57;98.77;;;26.27;;
24485;SDS011;13449;49.374;8.584;2022-12-17T14:59:32;98.03;;;25.83;;
24485;SDS011;13449;49.374;8.584;2022-12-17T15:02:19;92.40;;;27.47;;
24485;SDS011;13449;49.374;8.584;2022-12-17T15:04:49;75.00;;;21.10;;
24485;SDS011;13449;49.374;8.584;2022-12-17T15:07:25;85.47;;;24.10;;
24485;SDS011;13449;49.374;8.584;2022-12-17T15:09:53;88.03;;;24.90;;
24485;SDS011;13449;49.374;8.584;2022-12-17T15:12:21;79.20;;;22.97;;
24485;SDS011;13449;49.374;8.584;2022-12-17T15:14:50;62.97;;;20.73;;
24485;SDS011;13449;49.374;8.584;2022-12-17T15:17:17;84.63;;;28.27;;
24485;SDS011;13449;49.374;8.584;2022-12-17T15:19:46;83.13;;;23.40;;
24485;SDS011;13449;49.374;8.584;2022-12-17T15:22:21;78.10;;;22.93;;
24485;SDS011;13449;49.374;8.584;2022-12-17T15:24:47;85.40;;;23.77;;
24485;SDS011;13449;49.374;8.584;2022-12-17T15:27:15;71.07;;;22.23;;
24485;SDS011;13449;49.374;8.584;2022-12-17T15:29:42;84.93;;;24.87;;
24485;SDS011;13449;49.374;8.584;2022-12-17T15:32:11;68.83;;;22.03;;
24485;SDS011;13449;49.374;8.584;2022-12-17T15:34:43;75.70;;;22.57;;
24485;SDS011;13449;49.374;8.584;2022-12-17T15:37:10;60.63;;;19.73;;
24485;SDS011;13449;49.374;8.584;2022-12-17T15:39:37;55.97;;;18.93;;
24485;SDS011;13449;49.374;8.584;2022-12-17T15:42:03;62.40;;;21.10;;
24485;SDS011;13449;49.374;8.584;2022-12-17T15:44:49;70.40;;;20.43;;
24485;SDS011;13449;49.374;8.584;2022-12-17T15:47:15;72.03;;;21.50;;
24485;SDS011;13449;49.374;8.584;2022-12-17T15:49:42;80.30;;;22.73;;
24485;SDS011;13449;49.374;8.584;2022-12-17T15:52:10;66.20;;;22.70;;
24485;SDS011;13449;49.374;8.584;2022-12-17T15:54:40;60.30;;;17.53;;
24485;SDS011;13449;49.374;8.584;2022-12-17T15:57:10;76.63;;;23.50;;
24485;SDS011;13449;49.374;8.584;2022-12-17T15:59:43;70.50;;;21.47;;
24485;SDS011;13449;49.374;8.584;2022-12-17T16:02:10;71.50;;;20.17;;
24485;SDS011;13449;49.374;8.584;2022-12-17T16:04:37;69.03;;;18.10;;
24485;SDS011;13449;49.374;8.584;2022-12-17T16:07:03;67.93;;;22.50;;
24485;SDS011;13449;49.374;8.584;2022-12-17T16:09:30;77.80;;;21.07;;
24485;SDS011;13449;49.374;8.584;2022-12-17T16:11:57;81.40;;;20.63;;
24485;SDS011;13449;49.374;8.584;2022-12-17T16:14:23;66.20;;;22.67;;
24485;SDS011;13449;49.374;8.584;2022-12-17T16:16:50;70.00;;;20.77;;
24485;SDS011;13449;49.374;8.584;2022-12-17T16:19:20;67.70;;;19.83;;
24485;SDS011;13449;49.374;8.584;2022-12-17T16:21:47;74.03;;;19.10;;
24485;SDS011;13449;49.374;8.584;2022-12-17T16:24:14;69.47;;;19.33;;
24485;SDS011;13449;49.374;8.584;2022-12-17T16:26:43;61.57;;;18.30;;
24485;SDS011;13449;49.374;8.584;2022-12-17T16:29:09;63.23;;;21.67;;
24485;SDS011;13449;49.374;8.584;2022-12-17T16:31:41;66.60;;;20.07;;
24485;SDS011;13449;49.374;8.584;2022-12-17T16:34:10;73.57;;;20.73;;
24485;SDS011;13449;49.374;8.584;2022-12-17T16:36:38;83.43;;;19.33;;
24485;SDS011;13449;49.374;8.584;2022-12-17T16:39:04;65.50;;;21.63;;
24485;SDS011;13449;49.374;8.584;2022-12-17T16:41:39;81.07;;;20.77;;
24485;SDS011;13449;49.374;8.584;2022-12-17T16:44:08;64.33;;;20.40;;
24485;SDS011;13449;49.374;8.584;2022-12-17T16:46:35;89.23;;;22.13;;
24485;SDS011;13449;49.374;8.584;2022-12-17T16:49:05;69.13;;;21.57;;
24485;SDS011;13449;49.374;8.584;2022-12-17T16:51:34;79.53;;;23.63;;
24485;SDS011;13449;49.374;8.584;2022-12-17T16:54:05;69.70;;;22.40;;
24485;SDS011;13449;49.374;8.584;2022-12-17T16:56:34;72.17;;;21.87;;
24485;SDS011;13449;49.374;8.584;2022-12-17T16:59:05;77.77;;;26.73;;
24485;SDS011;13449;49.374;8.584;2022-12-17T17:01:36;76.83;;;22.17;;
24485;SDS011;13449;49.374;8.584;2022-12-17T17:04:07;63.87;;;20.10;;
24485;SDS011;13449;49.374;8.584;2022-12-17T17:06:45;69.03;;;22.90;;
24485;SDS011;13449;49.374;8.584;2022-12-17T17:09:30;75.57;;;23.03;;
24485;SDS011;13449;49.374;8.584;2022-12-17T17:11:56;76.77;;;21.93;;
24485;SDS011;13449;49.374;8.584;2022-12-17T17:14:24;58.40;;;20.57;;
24485;SDS011;13449;49.374;8.584;2022-12-17T17:16:51;63.40;;;21.60;;
24485;SDS011;13449;49.374;8.584;2022-12-17T17:19:18;67.83;;;19.70;;
24485;SDS011;13449;49.374;8.584;2022-12-17T17:21:49;76.93;;;23.60;;
24485;SDS011;13449;49.374;8.584;2022-12-17T17:24:20;72.53;;;23.67;;
24485;SDS011;13449;49.374;8.584;2022-12-17T17:26:49;74.80;;;23.37;;
24485;SDS011;13449;49.374;8.584;2022-12-17T17:29:19;74.70;;;21.67;;
24485;SDS011;13449;49.374;8.584;2022-12-17T17:31:46;77.77;;;23.20;;
24485;SDS011;13449;49.374;8.584;2022-12-17T17:34:37;86.73;;;29.87;;